createdAt,value
2017-01-31T00:00:21.007Z,0
2017-01-31T00:01:01.463Z,0
2017-01-31T00:01:41.963Z,0
2017-01-31T00:02:22.464Z,0
2017-01-31T00:03:02.961Z,0
2017-01-31T00:03:43.426Z,0
2017-01-31T00:04:23.960Z,0
2017-01-31T00:05:04.435Z,0
2017-01-31T00:05:44.952Z,0
2017-01-31T00:06:25.512Z,0
2017-01-31T00:07:06.002Z,0
2017-01-31T00:07:46.487Z,0
2017-01-31T00:08:27.017Z,0
2017-01-31T00:09:07.440Z,0
2017-01-31T00:09:47.920Z,0
2017-01-31T00:10:28.425Z,0
2017-01-31T00:11:08.924Z,0
2017-01-31T00:11:49.427Z,0
2017-01-31T00:12:29.913Z,0
2017-01-31T00:13:10.418Z,0
2017-01-31T00:13:50.884Z,0
2017-01-31T00:14:31.393Z,0
2017-01-31T00:15:11.885Z,0
2017-01-31T00:15:52.392Z,0
2017-01-31T00:16:32.905Z,0
2017-01-31T00:17:13.404Z,0
2017-01-31T00:17:53.936Z,0
2017-01-31T00:18:34.452Z,0
2017-01-31T00:19:14.979Z,0
2017-01-31T00:19:55.459Z,0
2017-01-31T00:20:35.932Z,0
2017-01-31T00:21:16.428Z,0
2017-01-31T00:21:56.944Z,0
2017-01-31T00:22:37.462Z,0
2017-01-31T00:23:17.958Z,0
2017-01-31T00:23:58.403Z,0
2017-01-31T00:24:38.928Z,0
2017-01-31T00:25:19.401Z,0
2017-01-31T00:25:59.893Z,0
2017-01-31T00:26:40.420Z,0
2017-01-31T00:27:20.901Z,0
2017-01-31T00:28:01.409Z,0
2017-01-31T00:28:41.924Z,0
2017-01-31T00:31:00.380Z,0
2017-01-31T00:31:40.870Z,0
2017-01-31T00:32:21.415Z,0
2017-01-31T00:33:01.921Z,0
2017-01-31T00:33:42.408Z,0
2017-01-31T00:34:22.945Z,0
2017-01-31T00:35:03.399Z,0
2017-01-31T00:35:43.951Z,0
2017-01-31T00:36:24.418Z,0
2017-01-31T00:37:04.903Z,0
2017-01-31T00:37:45.413Z,0
2017-01-31T00:38:25.904Z,0
2017-01-31T00:39:06.394Z,0
2017-01-31T00:39:46.894Z,0
2017-01-31T00:40:27.402Z,0
2017-01-31T00:41:07.928Z,0
2017-01-31T00:41:48.521Z,0
2017-01-31T00:42:29.055Z,0
2017-01-31T00:43:09.571Z,0
2017-01-31T00:43:50.042Z,0
2017-01-31T00:44:30.552Z,0
2017-01-31T00:45:11.003Z,0
2017-01-31T00:45:51.507Z,0
2017-01-31T00:46:32.024Z,0
2017-01-31T00:47:12.540Z,0
2017-01-31T00:47:53.057Z,0
2017-01-31T00:48:33.554Z,0
2017-01-31T00:49:14.069Z,0
2017-01-31T00:49:54.533Z,0
2017-01-31T00:50:35.004Z,0
2017-01-31T00:51:15.508Z,0
2017-01-31T00:51:55.956Z,0
2017-01-31T00:52:36.469Z,0
2017-01-31T00:53:16.978Z,0
2017-01-31T00:53:57.477Z,0
2017-01-31T00:54:37.976Z,0
2017-01-31T00:55:18.483Z,0
2017-01-31T00:55:59.016Z,0
2017-01-31T00:56:39.499Z,0
2017-01-31T00:57:19.982Z,0
2017-01-31T00:58:00.478Z,0
2017-01-31T00:58:40.991Z,0
2017-01-31T00:59:21.419Z,0
2017-01-31T01:00:01.928Z,0
2017-01-31T01:00:42.388Z,0
2017-01-31T01:01:22.918Z,0
2017-01-31T01:02:03.410Z,0
2017-01-31T01:02:43.936Z,0
2017-01-31T01:03:24.422Z,0
2017-01-31T01:04:04.926Z,0
2017-01-31T01:04:45.425Z,0
2017-01-31T01:05:25.941Z,0
2017-01-31T01:06:06.429Z,0
2017-01-31T01:06:46.939Z,0
2017-01-31T01:07:27.518Z,0
2017-01-31T01:08:07.992Z,0
2017-01-31T01:08:48.477Z,0
2017-01-31T01:09:29.058Z,0
2017-01-31T01:10:09.568Z,0
2017-01-31T01:10:50.060Z,0
2017-01-31T01:11:30.571Z,0
2017-01-31T01:12:11.077Z,0
2017-01-31T01:12:51.533Z,0
2017-01-31T01:13:32.009Z,0
2017-01-31T01:14:12.523Z,0
2017-01-31T01:14:53.036Z,0
2017-01-31T01:15:33.573Z,0
2017-01-31T01:16:14.033Z,0
2017-01-31T01:16:54.537Z,0
2017-01-31T01:17:35.062Z,0
2017-01-31T01:18:15.586Z,0
2017-01-31T01:18:56.104Z,0
2017-01-31T01:19:36.578Z,0
2017-01-31T01:20:17.055Z,0
2017-01-31T01:20:57.602Z,0
2017-01-31T01:21:38.091Z,0
2017-01-31T01:22:18.607Z,0
2017-01-31T01:22:59.099Z,0
2017-01-31T01:23:39.583Z,0
2017-01-31T01:24:20.095Z,0
2017-01-31T01:25:01.175Z,0
2017-01-31T01:25:41.725Z,0
2017-01-31T01:26:22.213Z,0
2017-01-31T01:27:02.728Z,0
2017-01-31T01:27:43.221Z,0
2017-01-31T01:28:23.745Z,0
2017-01-31T01:29:04.239Z,0
2017-01-31T01:29:44.724Z,0
2017-01-31T01:30:25.229Z,0
2017-01-31T01:31:05.677Z,0
2017-01-31T01:31:46.208Z,0
2017-01-31T01:32:26.692Z,0
2017-01-31T01:33:07.197Z,0
2017-01-31T01:33:47.716Z,0
2017-01-31T01:34:28.222Z,0
2017-01-31T01:35:08.707Z,0
2017-01-31T01:35:49.213Z,0
2017-01-31T01:36:29.726Z,0
2017-01-31T01:37:10.182Z,0
2017-01-31T01:37:50.661Z,0
2017-01-31T01:38:31.128Z,0
2017-01-31T01:39:11.640Z,0
2017-01-31T01:39:52.175Z,0
2017-01-31T01:40:32.673Z,0
2017-01-31T01:41:13.139Z,0
2017-01-31T01:41:53.667Z,0
2017-01-31T01:42:34.157Z,0
2017-01-31T01:43:14.591Z,0
2017-01-31T01:43:55.094Z,0
2017-01-31T01:44:35.570Z,0
2017-01-31T01:45:16.066Z,0
2017-01-31T01:45:56.588Z,0
2017-01-31T01:46:37.084Z,0
2017-01-31T01:47:17.585Z,0
2017-01-31T01:47:58.103Z,0
2017-01-31T01:48:38.581Z,0
2017-01-31T01:49:19.063Z,0
2017-01-31T01:49:59.523Z,0
2017-01-31T01:50:40.029Z,0
2017-01-31T01:51:20.553Z,0
2017-01-31T01:52:01.082Z,0
2017-01-31T01:52:41.558Z,0
2017-01-31T01:53:22.008Z,0
2017-01-31T01:54:02.553Z,0
2017-01-31T01:54:42.999Z,0
2017-01-31T01:55:23.514Z,0
2017-01-31T01:56:03.987Z,0
2017-01-31T01:56:44.444Z,0
2017-01-31T01:57:25.002Z,0
2017-01-31T01:58:05.443Z,0
2017-01-31T01:58:45.948Z,0
2017-01-31T01:59:26.419Z,0
2017-01-31T02:00:06.879Z,0
2017-01-31T02:00:47.350Z,0
2017-01-31T02:01:27.882Z,0
2017-01-31T02:02:08.393Z,0
2017-01-31T02:02:48.858Z,0
2017-01-31T02:03:29.377Z,0
2017-01-31T02:04:09.858Z,0
2017-01-31T02:04:50.346Z,0
2017-01-31T02:05:30.835Z,0
2017-01-31T02:06:11.326Z,0
2017-01-31T02:06:51.789Z,0
2017-01-31T02:07:32.320Z,0
2017-01-31T02:08:12.786Z,0
2017-01-31T02:08:53.323Z,0
2017-01-31T02:09:33.802Z,0
2017-01-31T02:10:14.326Z,0
2017-01-31T02:10:54.809Z,0
2017-01-31T02:11:35.266Z,0
2017-01-31T02:12:15.779Z,0
2017-01-31T02:12:56.284Z,0
2017-01-31T02:13:36.786Z,0
2017-01-31T02:14:17.311Z,0
2017-01-31T02:14:57.787Z,0
2017-01-31T02:15:38.342Z,0
2017-01-31T02:16:18.863Z,0
2017-01-31T02:16:59.351Z,0
2017-01-31T02:17:39.826Z,0
2017-01-31T02:18:20.326Z,0
2017-01-31T02:19:00.759Z,0
2017-01-31T02:19:41.270Z,0
2017-01-31T02:20:21.760Z,0
2017-01-31T02:21:02.419Z,0
2017-01-31T02:21:42.802Z,0
2017-01-31T02:22:23.311Z,0
2017-01-31T02:23:03.803Z,0
2017-01-31T02:23:44.319Z,0
2017-01-31T02:24:24.805Z,0
2017-01-31T02:25:05.308Z,0
2017-01-31T02:25:45.780Z,0
2017-01-31T02:26:26.306Z,0
2017-01-31T02:27:06.795Z,0
2017-01-31T02:27:47.293Z,0
2017-01-31T02:28:27.783Z,0
2017-01-31T02:29:08.301Z,0
2017-01-31T02:29:48.805Z,0
2017-01-31T02:30:29.250Z,0
2017-01-31T02:31:09.766Z,0
2017-01-31T02:31:50.244Z,0
2017-01-31T02:32:30.752Z,0
2017-01-31T02:33:11.311Z,0
2017-01-31T02:33:51.805Z,0
2017-01-31T02:34:32.299Z,0
2017-01-31T02:35:12.850Z,0
2017-01-31T02:35:53.347Z,0
2017-01-31T02:36:33.839Z,0
2017-01-31T02:37:14.351Z,0
2017-01-31T02:37:54.837Z,0
2017-01-31T02:38:35.295Z,0
2017-01-31T02:39:15.806Z,0
2017-01-31T02:39:56.283Z,0
2017-01-31T02:40:36.755Z,0
2017-01-31T02:41:17.288Z,0
2017-01-31T02:41:57.768Z,0
2017-01-31T02:42:38.249Z,0
2017-01-31T02:43:18.755Z,0
2017-01-31T02:43:59.246Z,0
2017-01-31T02:44:39.744Z,0
2017-01-31T02:45:20.235Z,0
2017-01-31T02:46:00.727Z,0
2017-01-31T02:46:41.194Z,0
2017-01-31T02:47:21.715Z,0
2017-01-31T02:48:02.181Z,0
2017-01-31T02:48:42.711Z,0
2017-01-31T02:49:23.233Z,0
2017-01-31T02:50:03.738Z,0
2017-01-31T02:50:44.207Z,0
2017-01-31T02:51:24.660Z,0
2017-01-31T02:52:05.137Z,0
2017-01-31T02:52:45.665Z,0
2017-01-31T02:53:26.133Z,0
2017-01-31T02:54:06.629Z,0
2017-01-31T02:54:47.167Z,0
2017-01-31T02:55:27.645Z,0
2017-01-31T02:56:08.130Z,0
2017-01-31T02:56:48.611Z,0
2017-01-31T02:57:29.089Z,0
2017-01-31T02:58:09.599Z,0
2017-01-31T02:58:50.112Z,0
2017-01-31T02:59:30.608Z,0
2017-01-31T03:00:11.122Z,0
2017-01-31T03:00:51.580Z,0
2017-01-31T03:01:32.055Z,0
2017-01-31T03:02:12.572Z,0
2017-01-31T03:02:53.057Z,0
2017-01-31T03:03:33.548Z,0
2017-01-31T03:04:14.081Z,0
2017-01-31T03:04:54.539Z,0
2017-01-31T03:05:35.055Z,0
2017-01-31T03:06:15.549Z,0
2017-01-31T03:06:56.047Z,0
2017-01-31T03:07:36.537Z,0
2017-01-31T03:08:17.068Z,0
2017-01-31T03:08:57.564Z,0
2017-01-31T03:09:38.178Z,0
2017-01-31T03:10:18.730Z,0
2017-01-31T03:10:59.247Z,0
2017-01-31T03:11:39.763Z,0
2017-01-31T03:12:20.191Z,0
2017-01-31T03:13:00.671Z,0
2017-01-31T03:13:41.168Z,0
2017-01-31T03:14:21.659Z,0
2017-01-31T03:15:02.164Z,0
2017-01-31T03:15:42.658Z,0
2017-01-31T03:16:23.216Z,0
2017-01-31T03:17:03.721Z,0
2017-01-31T03:17:44.252Z,0
2017-01-31T03:18:24.814Z,0
2017-01-31T03:19:05.287Z,0
2017-01-31T03:19:45.806Z,0
2017-01-31T03:20:26.273Z,0
2017-01-31T03:21:06.738Z,0
2017-01-31T03:21:47.218Z,0
2017-01-31T03:22:27.777Z,0
2017-01-31T03:23:08.230Z,0
2017-01-31T03:23:48.703Z,0
2017-01-31T03:24:29.250Z,0
2017-01-31T03:25:09.729Z,0
2017-01-31T03:25:50.206Z,0
2017-01-31T03:26:30.717Z,0
2017-01-31T03:27:11.225Z,0
2017-01-31T03:27:51.794Z,0
2017-01-31T03:28:32.295Z,0
2017-01-31T03:29:12.780Z,0
2017-01-31T03:29:53.301Z,0
2017-01-31T03:30:33.798Z,0
2017-01-31T03:31:14.314Z,0
2017-01-31T03:31:54.816Z,0
2017-01-31T03:32:35.332Z,0
2017-01-31T03:33:15.862Z,0
2017-01-31T03:33:56.306Z,0
2017-01-31T03:34:36.824Z,0
2017-01-31T03:35:17.342Z,0
2017-01-31T03:35:57.814Z,0
2017-01-31T03:36:38.342Z,0
2017-01-31T03:37:18.820Z,0
2017-01-31T03:37:59.323Z,0
2017-01-31T03:38:39.817Z,0
2017-01-31T03:39:20.322Z,0
2017-01-31T03:40:00.799Z,0
2017-01-31T03:40:41.309Z,0
2017-01-31T03:41:21.792Z,0
2017-01-31T03:42:02.331Z,0
2017-01-31T03:42:42.812Z,0
2017-01-31T03:43:23.319Z,0
2017-01-31T03:44:03.823Z,0
2017-01-31T03:44:44.320Z,0
2017-01-31T03:45:24.819Z,0
2017-01-31T03:46:05.298Z,0
2017-01-31T03:46:45.760Z,0
2017-01-31T03:47:26.288Z,0
2017-01-31T03:48:06.710Z,0
2017-01-31T03:48:47.270Z,0
2017-01-31T03:49:27.732Z,0
2017-01-31T03:50:08.217Z,0
2017-01-31T03:50:48.719Z,0
2017-01-31T03:51:29.216Z,0
2017-01-31T03:52:09.685Z,0
2017-01-31T03:52:50.183Z,0
2017-01-31T03:53:30.688Z,0
2017-01-31T03:54:11.194Z,0
2017-01-31T03:54:51.651Z,0
2017-01-31T03:55:32.190Z,0
2017-01-31T03:56:12.663Z,0
2017-01-31T03:56:53.127Z,0
2017-01-31T03:57:33.651Z,0
2017-01-31T03:58:14.196Z,0
2017-01-31T03:58:54.639Z,0
2017-01-31T03:59:35.120Z,0
2017-01-31T04:00:15.649Z,0
2017-01-31T04:00:56.119Z,0
2017-01-31T04:01:36.646Z,0
2017-01-31T04:02:17.132Z,0
2017-01-31T04:02:57.577Z,0
2017-01-31T04:03:38.123Z,0
2017-01-31T04:04:18.564Z,0
2017-01-31T04:04:59.099Z,0
2017-01-31T04:05:39.544Z,0
2017-01-31T04:06:20.084Z,0
2017-01-31T04:07:00.573Z,0
2017-01-31T04:07:41.072Z,0
2017-01-31T04:08:21.566Z,0
2017-01-31T04:09:02.082Z,0
2017-01-31T04:09:42.582Z,0
2017-01-31T04:10:23.027Z,0
2017-01-31T04:11:03.530Z,0
2017-01-31T04:11:44.017Z,0
2017-01-31T04:12:24.538Z,0
2017-01-31T04:13:04.990Z,0
2017-01-31T04:13:45.479Z,0
2017-01-31T04:14:26.095Z,0
2017-01-31T04:15:06.621Z,0
2017-01-31T04:15:47.110Z,0
2017-01-31T04:16:27.568Z,0
2017-01-31T04:17:08.049Z,0
2017-01-31T04:17:48.576Z,0
2017-01-31T04:18:29.047Z,0
2017-01-31T04:19:09.569Z,0
2017-01-31T04:19:50.075Z,0
2017-01-31T04:20:30.552Z,0
2017-01-31T04:21:11.056Z,0
2017-01-31T04:21:51.577Z,0
2017-01-31T04:22:32.046Z,0
2017-01-31T04:23:12.513Z,0
2017-01-31T04:23:53.009Z,0
2017-01-31T04:24:33.527Z,0
2017-01-31T04:25:14.072Z,0
2017-01-31T04:25:54.562Z,0
2017-01-31T04:26:35.090Z,0
2017-01-31T04:27:15.568Z,0
2017-01-31T04:27:56.030Z,0
2017-01-31T04:28:36.584Z,0
2017-01-31T04:29:17.039Z,0
2017-01-31T04:29:57.551Z,0
2017-01-31T04:30:38.038Z,0
2017-01-31T04:31:18.533Z,0
2017-01-31T04:31:59.036Z,0
2017-01-31T04:32:39.514Z,0
2017-01-31T04:33:20.011Z,0
2017-01-31T04:34:00.530Z,0
2017-01-31T04:34:41.017Z,0
2017-01-31T04:35:21.535Z,0
2017-01-31T04:36:02.106Z,0
2017-01-31T04:36:42.522Z,0
2017-01-31T04:37:23.113Z,0
2017-01-31T04:38:03.614Z,0
2017-01-31T04:38:44.136Z,0
2017-01-31T04:39:24.618Z,0
2017-01-31T04:40:05.216Z,0
2017-01-31T04:40:45.735Z,0
2017-01-31T04:41:26.373Z,0
2017-01-31T04:42:06.713Z,0
2017-01-31T04:42:47.214Z,0
2017-01-31T04:43:27.715Z,0
2017-01-31T04:44:08.252Z,0
2017-01-31T04:44:48.757Z,0
2017-01-31T04:45:29.270Z,0
2017-01-31T04:46:09.768Z,0
2017-01-31T04:46:50.262Z,0
2017-01-31T04:47:30.737Z,0
2017-01-31T04:48:11.258Z,0
2017-01-31T04:48:51.757Z,0
2017-01-31T04:49:32.292Z,0
2017-01-31T04:50:12.733Z,0
2017-01-31T04:50:53.278Z,0
2017-01-31T04:51:33.747Z,0
2017-01-31T04:52:14.204Z,0
2017-01-31T04:52:54.733Z,0
2017-01-31T04:53:35.262Z,0
2017-01-31T04:54:15.733Z,0
2017-01-31T04:54:56.221Z,0
2017-01-31T04:55:36.773Z,0
2017-01-31T04:56:17.305Z,0
2017-01-31T04:56:57.807Z,0
2017-01-31T04:57:38.277Z,0
2017-01-31T04:58:18.801Z,0
2017-01-31T04:58:59.262Z,0
2017-01-31T04:59:39.748Z,0
2017-01-31T05:00:20.268Z,0
2017-01-31T05:01:00.770Z,0
2017-01-31T05:01:41.268Z,0
2017-01-31T05:02:21.792Z,0
2017-01-31T05:03:02.252Z,0
2017-01-31T05:03:42.855Z,0
2017-01-31T05:04:23.364Z,0
2017-01-31T05:05:03.900Z,0
2017-01-31T05:05:44.382Z,0
2017-01-31T05:06:24.841Z,0
2017-01-31T05:07:05.360Z,0
2017-01-31T05:07:45.849Z,0
2017-01-31T05:08:26.361Z,0
2017-01-31T05:09:06.860Z,0
2017-01-31T05:09:47.355Z,0
2017-01-31T05:10:27.850Z,0
2017-01-31T05:11:08.363Z,0
2017-01-31T05:11:48.865Z,0
2017-01-31T05:12:29.370Z,0
2017-01-31T05:13:09.875Z,0
2017-01-31T05:13:50.386Z,0
2017-01-31T05:14:30.900Z,0
2017-01-31T05:15:11.355Z,0
2017-01-31T05:15:51.885Z,0
2017-01-31T05:16:32.494Z,0
2017-01-31T05:17:12.998Z,0
2017-01-31T05:17:53.470Z,0
2017-01-31T05:18:33.950Z,0
2017-01-31T05:19:14.458Z,0
2017-01-31T05:19:55.006Z,0
2017-01-31T05:20:35.489Z,0
2017-01-31T05:21:15.959Z,0
2017-01-31T05:21:56.442Z,0
2017-01-31T05:22:36.992Z,0
2017-01-31T05:23:17.560Z,0
2017-01-31T05:23:58.044Z,0
2017-01-31T05:24:39.246Z,0
2017-01-31T05:25:19.721Z,0
2017-01-31T05:26:00.203Z,0
2017-01-31T05:26:40.713Z,0
2017-01-31T05:27:21.185Z,0
2017-01-31T05:28:01.677Z,0
2017-01-31T05:28:42.184Z,0
2017-01-31T05:29:22.680Z,0
2017-01-31T05:30:03.176Z,0
2017-01-31T05:30:43.668Z,0
2017-01-31T05:31:24.203Z,0
2017-01-31T05:32:04.702Z,0
2017-01-31T05:32:45.227Z,0
2017-01-31T05:33:25.745Z,0
2017-01-31T05:34:06.249Z,0
2017-01-31T05:34:46.743Z,0
2017-01-31T05:35:27.290Z,0
2017-01-31T05:36:07.737Z,0
2017-01-31T05:36:48.261Z,0
2017-01-31T05:37:28.741Z,0
2017-01-31T05:38:09.276Z,0
2017-01-31T05:38:49.854Z,0
2017-01-31T05:39:30.321Z,0
2017-01-31T05:40:10.835Z,0
2017-01-31T05:40:51.361Z,0
2017-01-31T05:41:31.867Z,0
2017-01-31T05:42:12.380Z,0
2017-01-31T05:42:52.873Z,0
2017-01-31T05:43:33.364Z,0
2017-01-31T05:44:13.823Z,0
2017-01-31T05:44:54.358Z,0
2017-01-31T05:45:34.867Z,0
2017-01-31T05:46:15.359Z,0
2017-01-31T05:46:55.857Z,0
2017-01-31T05:47:36.319Z,0
2017-01-31T05:48:16.817Z,0
2017-01-31T05:48:57.296Z,0
2017-01-31T05:49:37.829Z,0
2017-01-31T05:50:18.295Z,0
2017-01-31T05:50:58.793Z,0
2017-01-31T05:51:39.461Z,0
2017-01-31T05:52:19.934Z,0
2017-01-31T05:53:00.463Z,0
2017-01-31T05:53:40.969Z,0
2017-01-31T05:54:21.471Z,0
2017-01-31T05:55:01.905Z,0
2017-01-31T05:55:42.434Z,0
2017-01-31T05:56:23.097Z,0
2017-01-31T05:57:03.510Z,0
2017-01-31T05:57:44.016Z,0
2017-01-31T05:58:24.498Z,0
2017-01-31T05:59:04.991Z,0
2017-01-31T05:59:45.578Z,0
2017-01-31T06:00:26.303Z,0
2017-01-31T06:01:06.760Z,0
2017-01-31T06:01:47.240Z,0
2017-01-31T06:02:27.762Z,0
2017-01-31T06:03:08.263Z,0
2017-01-31T06:03:48.736Z,0
2017-01-31T06:04:29.235Z,0
2017-01-31T06:05:09.796Z,0
2017-01-31T06:05:50.393Z,0
2017-01-31T06:06:30.881Z,0
2017-01-31T06:07:11.370Z,0
2017-01-31T06:07:51.873Z,0
2017-01-31T06:08:32.332Z,0
2017-01-31T06:09:12.831Z,0
2017-01-31T06:09:53.312Z,0
2017-01-31T06:10:33.810Z,0
2017-01-31T06:11:14.559Z,0
2017-01-31T06:11:54.987Z,0
2017-01-31T06:12:35.508Z,0
2017-01-31T06:13:16.082Z,0
2017-01-31T06:13:56.543Z,0
2017-01-31T06:14:37.008Z,0
2017-01-31T06:15:17.498Z,0
2017-01-31T06:15:58.001Z,0
2017-01-31T06:16:38.497Z,0
2017-01-31T06:17:18.960Z,0
2017-01-31T06:17:59.463Z,0
2017-01-31T06:18:39.978Z,0
2017-01-31T06:19:20.507Z,0
2017-01-31T06:20:00.994Z,0
2017-01-31T06:20:41.497Z,0
2017-01-31T06:21:21.965Z,0
2017-01-31T06:22:02.442Z,0
2017-01-31T06:22:42.920Z,0
2017-01-31T06:23:23.455Z,0
2017-01-31T06:24:03.958Z,0
2017-01-31T06:24:44.475Z,0
2017-01-31T06:25:24.978Z,0
2017-01-31T06:26:05.578Z,0
2017-01-31T06:26:46.064Z,0
2017-01-31T06:27:26.542Z,0
2017-01-31T06:28:07.033Z,0
2017-01-31T06:28:47.469Z,0
2017-01-31T06:29:27.993Z,0
2017-01-31T06:30:08.452Z,0
2017-01-31T06:30:48.957Z,0
2017-01-31T06:31:29.461Z,0
2017-01-31T06:32:09.946Z,0
2017-01-31T06:32:50.414Z,0
2017-01-31T06:33:30.922Z,0
2017-01-31T06:34:11.433Z,0
2017-01-31T06:34:51.890Z,0
2017-01-31T06:35:32.399Z,0
2017-01-31T06:36:12.886Z,0
2017-01-31T06:36:53.429Z,0
2017-01-31T06:37:33.899Z,0
2017-01-31T06:38:14.411Z,0
2017-01-31T06:38:54.932Z,0
2017-01-31T06:39:35.420Z,0
2017-01-31T06:40:16.003Z,0
2017-01-31T06:40:56.583Z,0
2017-01-31T06:41:37.152Z,0
2017-01-31T06:42:17.656Z,0
2017-01-31T06:42:58.154Z,0
2017-01-31T06:43:38.723Z,0
2017-01-31T06:44:19.216Z,0
2017-01-31T06:44:59.721Z,0
2017-01-31T06:45:40.205Z,0
2017-01-31T06:46:20.688Z,0
2017-01-31T06:47:01.148Z,0
2017-01-31T06:47:41.657Z,0
2017-01-31T06:48:22.154Z,0
2017-01-31T06:49:02.683Z,0
2017-01-31T06:49:43.203Z,0
2017-01-31T06:50:23.698Z,0
2017-01-31T06:51:04.205Z,0
2017-01-31T06:51:44.655Z,0
2017-01-31T06:52:25.147Z,0
2017-01-31T06:53:05.622Z,0
2017-01-31T06:53:46.120Z,0
2017-01-31T06:54:26.633Z,0
2017-01-31T06:55:07.119Z,0
2017-01-31T06:55:47.604Z,0
2017-01-31T06:56:28.077Z,0
2017-01-31T06:57:08.570Z,0
2017-01-31T06:57:49.086Z,0
2017-01-31T06:58:29.588Z,0
2017-01-31T06:59:10.084Z,0
2017-01-31T06:59:50.553Z,0
2017-01-31T07:00:31.053Z,0
2017-01-31T07:01:11.525Z,0
2017-01-31T07:01:52.026Z,0
2017-01-31T07:02:32.538Z,0
2017-01-31T07:03:12.995Z,0
2017-01-31T07:03:53.541Z,0
2017-01-31T07:04:34.030Z,0
2017-01-31T07:05:14.510Z,0
2017-01-31T07:05:55.054Z,0
2017-01-31T07:06:35.513Z,0
2017-01-31T07:07:16.012Z,0
2017-01-31T07:07:56.501Z,0
2017-01-31T07:08:37.642Z,0
2017-01-31T07:09:18.144Z,0
2017-01-31T07:09:58.651Z,0
2017-01-31T07:10:39.214Z,0
2017-01-31T07:11:19.690Z,0
2017-01-31T07:12:00.177Z,0
2017-01-31T07:12:40.666Z,0
2017-01-31T07:13:21.218Z,0
2017-01-31T07:14:01.669Z,0
2017-01-31T07:14:42.146Z,0
2017-01-31T07:15:22.656Z,0
2017-01-31T07:16:03.125Z,0
2017-01-31T07:16:43.621Z,0
2017-01-31T07:17:24.109Z,0
2017-01-31T07:18:05.321Z,0
2017-01-31T07:18:45.823Z,0
2017-01-31T07:19:26.292Z,0
2017-01-31T07:20:06.844Z,0
2017-01-31T07:20:47.306Z,0
2017-01-31T07:21:27.828Z,0
2017-01-31T07:22:08.334Z,0
2017-01-31T07:22:48.799Z,0
2017-01-31T07:23:29.320Z,0
2017-01-31T07:24:09.797Z,0
2017-01-31T07:24:50.302Z,0
2017-01-31T07:25:30.784Z,0
2017-01-31T07:26:11.250Z,0
2017-01-31T07:26:51.741Z,0
2017-01-31T07:27:32.237Z,0
2017-01-31T07:28:12.742Z,0
2017-01-31T07:28:53.296Z,0
2017-01-31T07:29:33.790Z,0
2017-01-31T07:30:14.224Z,0
2017-01-31T07:30:54.736Z,5
2017-01-31T07:31:35.197Z,5
2017-01-31T07:32:15.898Z,5
2017-01-31T07:32:56.423Z,5
2017-01-31T07:33:37.064Z,5
2017-01-31T07:34:17.650Z,5
2017-01-31T07:34:58.143Z,5
2017-01-31T07:35:38.616Z,5
2017-01-31T07:36:19.104Z,5
2017-01-31T07:36:59.602Z,5
2017-01-31T07:37:40.105Z,5
2017-01-31T07:38:20.559Z,5
2017-01-31T07:39:01.078Z,5
2017-01-31T07:39:41.592Z,5
2017-01-31T07:40:22.059Z,5
2017-01-31T07:41:02.596Z,5
2017-01-31T07:41:43.101Z,5
2017-01-31T07:42:23.588Z,5
2017-01-31T07:43:04.098Z,5
2017-01-31T07:43:44.615Z,5
2017-01-31T07:44:25.044Z,5
2017-01-31T07:45:05.570Z,5
2017-01-31T07:45:46.036Z,5
2017-01-31T07:46:26.527Z,5
2017-01-31T07:47:07.035Z,5
2017-01-31T07:47:47.488Z,10
2017-01-31T07:48:27.973Z,10
2017-01-31T07:49:08.468Z,10
2017-01-31T07:49:48.993Z,10
2017-01-31T07:50:29.512Z,10
2017-01-31T07:51:10.024Z,10
2017-01-31T07:51:50.533Z,10
2017-01-31T07:52:31.076Z,10
2017-01-31T07:53:11.593Z,10
2017-01-31T07:53:52.052Z,10
2017-01-31T07:54:32.591Z,10
2017-01-31T07:55:13.078Z,5
2017-01-31T07:55:53.567Z,10
2017-01-31T07:56:34.072Z,10
2017-01-31T07:57:14.586Z,5
2017-01-31T07:57:55.073Z,5
2017-01-31T07:58:35.539Z,5
2017-01-31T07:59:16.025Z,5
2017-01-31T07:59:56.581Z,5
2017-01-31T08:00:37.062Z,5
2017-01-31T08:01:17.547Z,5
2017-01-31T08:01:58.086Z,5
2017-01-31T08:02:38.552Z,5
2017-01-31T08:03:19.118Z,5
2017-01-31T08:03:59.572Z,5
2017-01-31T08:04:40.104Z,5
2017-01-31T08:05:20.579Z,5
2017-01-31T08:06:01.066Z,5
2017-01-31T08:06:41.579Z,5
2017-01-31T08:07:22.046Z,5
2017-01-31T08:08:02.602Z,5
2017-01-31T08:08:43.057Z,5
2017-01-31T08:09:23.562Z,5
2017-01-31T08:10:04.077Z,5
2017-01-31T08:10:44.578Z,10
2017-01-31T08:11:25.051Z,10
2017-01-31T08:12:05.547Z,10
2017-01-31T08:12:46.012Z,10
2017-01-31T08:13:26.481Z,10
2017-01-31T08:14:06.977Z,10
2017-01-31T08:14:47.493Z,10
2017-01-31T08:15:27.957Z,10
2017-01-31T08:16:08.470Z,10
2017-01-31T08:16:48.977Z,10
2017-01-31T08:17:29.474Z,10
2017-01-31T08:18:09.979Z,10
2017-01-31T08:18:50.453Z,10
2017-01-31T08:19:30.986Z,10
2017-01-31T08:20:11.465Z,10
2017-01-31T08:20:51.930Z,10
2017-01-31T08:21:32.479Z,10
2017-01-31T08:22:12.918Z,10
2017-01-31T08:22:53.391Z,10
2017-01-31T08:23:33.940Z,10
2017-01-31T08:24:14.409Z,10
2017-01-31T08:24:54.905Z,10
2017-01-31T08:25:35.407Z,15
2017-01-31T08:26:15.987Z,15
2017-01-31T08:26:56.459Z,15
2017-01-31T08:27:36.929Z,15
2017-01-31T08:28:17.435Z,15
2017-01-31T08:28:57.918Z,10
2017-01-31T08:29:38.473Z,10
2017-01-31T08:30:18.899Z,10
2017-01-31T08:30:59.401Z,10
2017-01-31T08:31:39.918Z,10
2017-01-31T08:32:20.410Z,15
2017-01-31T08:33:01.022Z,15
2017-01-31T08:33:41.545Z,15
2017-01-31T08:34:22.021Z,15
2017-01-31T08:35:02.560Z,15
2017-01-31T08:35:43.054Z,15
2017-01-31T08:36:23.530Z,15
2017-01-31T08:37:03.993Z,15
2017-01-31T08:37:44.500Z,15
2017-01-31T08:38:24.997Z,20
2017-01-31T08:39:05.535Z,20
2017-01-31T08:39:45.996Z,20
2017-01-31T08:40:26.467Z,20
2017-01-31T08:41:06.952Z,20
2017-01-31T08:41:47.455Z,15
2017-01-31T08:42:27.936Z,15
2017-01-31T08:43:08.424Z,20
2017-01-31T08:43:48.941Z,20
2017-01-31T08:44:29.430Z,20
2017-01-31T08:45:09.901Z,20
2017-01-31T08:45:50.419Z,15
2017-01-31T08:46:30.903Z,15
2017-01-31T08:47:11.359Z,20
2017-01-31T08:47:51.904Z,20
2017-01-31T08:48:32.419Z,15
2017-01-31T08:49:12.961Z,20
2017-01-31T08:49:53.449Z,20
2017-01-31T08:50:33.969Z,20
2017-01-31T08:51:14.403Z,20
2017-01-31T08:51:54.923Z,20
2017-01-31T08:52:35.415Z,20
2017-01-31T08:53:15.840Z,20
2017-01-31T08:53:56.337Z,20
2017-01-31T08:54:36.887Z,20
2017-01-31T08:55:17.419Z,20
2017-01-31T08:55:57.881Z,20
2017-01-31T08:56:38.417Z,15
2017-01-31T08:57:18.836Z,15
2017-01-31T08:57:59.404Z,20
2017-01-31T08:58:39.978Z,20
2017-01-31T08:59:20.430Z,20
2017-01-31T09:00:00.891Z,20
2017-01-31T09:00:41.436Z,20
2017-01-31T09:01:21.900Z,20
2017-01-31T09:02:02.479Z,20
2017-01-31T09:02:42.941Z,15
2017-01-31T09:03:23.439Z,15
2017-01-31T09:04:03.932Z,15
2017-01-31T09:04:44.388Z,20
2017-01-31T09:05:24.910Z,20
2017-01-31T09:06:05.397Z,25
2017-01-31T09:06:45.905Z,25
2017-01-31T09:07:26.375Z,25
2017-01-31T09:08:06.866Z,25
2017-01-31T09:08:47.345Z,25
2017-01-31T09:09:27.850Z,25
2017-01-31T09:10:08.363Z,25
2017-01-31T09:10:48.836Z,25
2017-01-31T09:11:29.481Z,30
2017-01-31T09:12:09.865Z,30
2017-01-31T09:12:50.365Z,30
2017-01-31T09:13:30.871Z,30
2017-01-31T09:14:11.403Z,30
2017-01-31T09:14:51.914Z,25
2017-01-31T09:15:32.418Z,25
2017-01-31T09:16:12.909Z,30
2017-01-31T09:16:53.390Z,35
2017-01-31T09:17:33.959Z,35
2017-01-31T09:18:14.466Z,40
2017-01-31T09:18:54.946Z,40
2017-01-31T09:19:35.449Z,40
2017-01-31T09:20:15.951Z,40
2017-01-31T09:20:56.463Z,40
2017-01-31T09:21:36.911Z,35
2017-01-31T09:22:17.421Z,30
2017-01-31T09:22:57.914Z,30
2017-01-31T09:23:38.393Z,35
2017-01-31T09:24:18.916Z,35
2017-01-31T09:24:59.394Z,35
2017-01-31T09:25:39.936Z,30
2017-01-31T09:26:20.385Z,25
2017-01-31T09:27:00.908Z,25
2017-01-31T09:27:41.391Z,20
2017-01-31T09:28:21.924Z,20
2017-01-31T09:29:02.456Z,20
2017-01-31T09:29:42.917Z,20
2017-01-31T09:30:23.403Z,20
2017-01-31T09:31:03.915Z,20
2017-01-31T09:31:44.388Z,20
2017-01-31T09:32:24.884Z,20
2017-01-31T09:33:05.358Z,25
2017-01-31T09:33:45.927Z,35
2017-01-31T09:34:26.392Z,45
2017-01-31T09:35:06.946Z,50
2017-01-31T09:35:47.430Z,50
2017-01-31T09:36:27.917Z,50
2017-01-31T09:37:08.450Z,55
2017-01-31T09:37:48.903Z,60
2017-01-31T09:38:29.437Z,60
2017-01-31T09:39:09.952Z,60
2017-01-31T09:39:50.443Z,60
2017-01-31T09:40:30.956Z,70
2017-01-31T09:41:11.443Z,70
2017-01-31T09:41:51.936Z,75
2017-01-31T09:42:32.436Z,65
2017-01-31T09:43:12.931Z,60
2017-01-31T09:43:53.423Z,50
2017-01-31T09:44:33.879Z,55
2017-01-31T09:45:14.373Z,60
2017-01-31T09:45:54.879Z,60
2017-01-31T09:46:35.369Z,60
2017-01-31T09:47:15.897Z,50
2017-01-31T09:47:56.304Z,55
2017-01-31T09:48:36.817Z,55
2017-01-31T09:49:17.288Z,55
2017-01-31T09:49:57.813Z,50
2017-01-31T09:50:38.315Z,50
2017-01-31T09:51:18.790Z,55
2017-01-31T09:51:59.304Z,55
2017-01-31T09:52:39.807Z,50
2017-01-31T09:53:20.289Z,45
2017-01-31T09:54:00.772Z,40
2017-01-31T09:54:41.269Z,35
2017-01-31T09:55:21.715Z,30
2017-01-31T09:56:02.324Z,30